sensor_id;sensor_type;location;lat;lon;timestamp;pressure;altitude;pressure_sealevel;temperature;humidity
6942;BME280;3510;43.200;27.920;2023-08-07T00:01:06;100016.06;;;24.90;66.46
6942;BME280;3510;43.200;27.920;2023-08-07T00:03:32;100010.91;;;24.89;65.75
6942;BME280;3510;43.200;27.920;2023-08-07T00:06:00;100011.81;;;24.94;65.63
6942;BME280;3510;43.200;27.920;2023-08-07T00:08:27;100009.94;;;24.80;65.79
6942;BME280;3510;43.200;27.920;2023-08-07T00:10:53;100015.88;;;24.75;65.98
6942;BME280;3510;43.200;27.920;2023-08-07T00:13:31;100020.28;;;24.83;65.85
6942;BME280;3510;43.200;27.920;2023-08-07T00:15:58;100024.56;;;24.81;65.36
6942;BME280;3510;43.200;27.920;2023-08-07T00:18:24;100023.84;;;24.95;65.11
6942;BME280;3510;43.200;27.920;2023-08-07T00:20:51;100019.66;;;25.03;65.00
6942;BME280;3510;43.200;27.920;2023-08-07T00:23:17;100017.06;;;25.01;64.85
6942;BME280;3510;43.200;27.920;2023-08-07T00:25:44;100023.13;;;25.05;64.74
6942;BME280;3510;43.200;27.920;2023-08-07T00:28:10;100024.66;;;24.91;65.16
6942;BME280;3510;43.200;27.920;2023-08-07T00:30:38;100024.75;;;24.97;64.88
6942;BME280;3510;43.200;27.920;2023-08-07T00:33:04;100028.69;;;24.70;65.82
6942;BME280;3510;43.200;27.920;2023-08-07T00:35:31;100019.25;;;24.71;65.98
6942;BME280;3510;43.200;27.920;2023-08-07T00:37:57;100026.19;;;24.76;65.93
6942;BME280;3510;43.200;27.920;2023-08-07T00:40:24;100021.22;;;24.89;65.17
6942;BME280;3510;43.200;27.920;2023-08-07T00:42:50;100020.22;;;24.80;65.93
6942;BME280;3510;43.200;27.920;2023-08-07T00:45:17;100027.78;;;24.67;65.87
6942;BME280;3510;43.200;27.920;2023-08-07T00:47:45;100037.09;;;24.58;66.19
6942;BME280;3510;43.200;27.920;2023-08-07T00:50:11;100033.72;;;24.64;65.90
6942;BME280;3510;43.200;27.920;2023-08-07T00:52:38;100038.84;;;24.61;66.09
6942;BME280;3510;43.200;27.920;2023-08-07T00:55:05;100033.13;;;24.82;65.84
6942;BME280;3510;43.200;27.920;2023-08-07T00:57:32;100034.94;;;24.89;65.46
6942;BME280;3510;43.200;27.920;2023-08-07T00:59:58;100042.56;;;24.81;65.85
6942;BME280;3510;43.200;27.920;2023-08-07T01:02:26;100045.09;;;24.80;65.06
6942;BME280;3510;43.200;27.920;2023-08-07T01:04:53;100053.84;;;24.91;64.74
6942;BME280;3510;43.200;27.920;2023-08-07T01:07:20;100057.16;;;24.82;64.72
6942;BME280;3510;43.200;27.920;2023-08-07T01:09:47;100059.84;;;24.89;63.63
6942;BME280;3510;43.200;27.920;2023-08-07T01:12:15;100058.19;;;24.94;63.04
6942;BME280;3510;43.200;27.920;2023-08-07T01:14:47;100062.31;;;24.81;63.61
6942;BME280;3510;43.200;27.920;2023-08-07T01:17:15;100062.47;;;24.93;63.78
6942;BME280;3510;43.200;27.920;2023-08-07T01:19:42;100062.41;;;24.89;64.00
6942;BME280;3510;43.200;27.920;2023-08-07T01:22:10;100077.25;;;25.08;63.58
6942;BME280;3510;43.200;27.920;2023-08-07T01:24:37;100080.31;;;24.81;64.14
6942;BME280;3510;43.200;27.920;2023-08-07T01:27:11;100083.59;;;24.72;64.61
6942;BME280;3510;43.200;27.920;2023-08-07T01:29:42;100087.28;;;24.90;64.04
6942;BME280;3510;43.200;27.920;2023-08-07T01:32:11;100088.25;;;24.96;63.73
6942;BME280;3510;43.200;27.920;2023-08-07T01:34:40;100086.44;;;24.89;63.27
6942;BME280;3510;43.200;27.920;2023-08-07T01:37:07;100088.97;;;24.84;63.36
6942;BME280;3510;43.200;27.920;2023-08-07T01:39:38;100088.69;;;24.66;63.44
6942;BME280;3510;43.200;27.920;2023-08-07T01:42:05;100100.69;;;24.67;63.33
6942;BME280;3510;43.200;27.920;2023-08-07T01:44:32;100094.88;;;24.79;63.17
6942;BME280;3510;43.200;27.920;2023-08-07T01:46:59;100100.59;;;24.61;62.64
6942;BME280;3510;43.200;27.920;2023-08-07T01:49:25;100099.63;;;24.54;62.86
6942;BME280;3510;43.200;27.920;2023-08-07T01:51:52;100103.22;;;24.66;62.95
6942;BME280;3510;43.200;27.920;2023-08-07T01:54:18;100102.31;;;24.60;63.19
6942;BME280;3510;43.200;27.920;2023-08-07T01:56:46;100116.03;;;24.61;62.95
6942;BME280;3510;43.200;27.920;2023-08-07T01:59:13;100112.34;;;24.44;63.78
6942;BME280;3510;43.200;27.920;2023-08-07T02:01:40;100104.69;;;24.48;63.59
6942;BME280;3510;43.200;27.920;2023-08-07T02:04:06;100117.34;;;24.37;63.77
6942;BME280;3510;43.200;27.920;2023-08-07T02:06:33;100107.72;;;24.26;63.63
6942;BME280;3510;43.200;27.920;2023-08-07T02:08:59;100127.41;;;24.25;63.89
6942;BME280;3510;43.200;27.920;2023-08-07T02:11:26;100101.91;;;24.37;63.60
6942;BME280;3510;43.200;27.920;2023-08-07T02:13:54;100108.41;;;24.17;64.20
6942;BME280;3510;43.200;27.920;2023-08-07T02:16:20;100116.97;;;24.16;64.08
6942;BME280;3510;43.200;27.920;2023-08-07T02:18:46;100116.97;;;24.16;64.20
6942;BME280;3510;43.200;27.920;2023-08-07T02:21:13;100121.81;;;24.01;64.28
6942;BME280;3510;43.200;27.920;2023-08-07T02:23:39;100127.69;;;23.92;64.83
6942;BME280;3510;43.200;27.920;2023-08-07T02:26:15;100126.63;;;23.84;64.71
6942;BME280;3510;43.200;27.920;2023-08-07T02:28:41;100131.84;;;23.87;64.87
6942;BME280;3510;43.200;27.920;2023-08-07T02:31:09;100140.41;;;23.87;64.40
6942;BME280;3510;43.200;27.920;2023-08-07T02:33:36;100131.81;;;23.85;64.60
6942;BME280;3510;43.200;27.920;2023-08-07T02:36:02;100142.84;;;23.80;64.62
6942;BME280;3510;43.200;27.920;2023-08-07T02:38:29;100145.06;;;23.63;65.09
6942;BME280;3510;43.200;27.920;2023-08-07T02:40:56;100137.28;;;23.60;65.19
6942;BME280;3510;43.200;27.920;2023-08-07T02:43:22;100145.31;;;23.74;64.78
6942;BME280;3510;43.200;27.920;2023-08-07T02:45:49;100149.19;;;23.56;65.17
6942;BME280;3510;43.200;27.920;2023-08-07T02:48:17;100142.09;;;23.45;65.55
6942;BME280;3510;43.200;27.920;2023-08-07T02:50:44;100144.75;;;23.48;64.92
6942;BME280;3510;43.200;27.920;2023-08-07T02:53:11;100149.97;;;23.52;64.50
6942;BME280;3510;43.200;27.920;2023-08-07T02:55:37;100163.44;;;23.40;64.92
6942;BME280;3510;43.200;27.920;2023-08-07T02:58:04;100166.84;;;23.41;64.00
6942;BME280;3510;43.200;27.920;2023-08-07T03:00:30;100172.16;;;23.49;63.81
6942;BME280;3510;43.200;27.920;2023-08-07T03:02:57;100160.09;;;23.45;63.91
6942;BME280;3510;43.200;27.920;2023-08-07T03:05:24;100174.63;;;23.44;63.38
6942;BME280;3510;43.200;27.920;2023-08-07T03:07:51;100153.16;;;23.40;63.37
6942;BME280;3510;43.200;27.920;2023-08-07T03:10:18;100158.22;;;23.37;63.47
6942;BME280;3510;43.200;27.920;2023-08-07T03:12:45;100160.25;;;23.54;62.58
6942;BME280;3510;43.200;27.920;2023-08-07T03:15:12;100171.94;;;23.39;62.83
6942;BME280;3510;43.200;27.920;2023-08-07T03:17:38;100173.69;;;23.40;62.74
6942;BME280;3510;43.200;27.920;2023-08-07T03:20:05;100171.06;;;23.37;62.25
6942;BME280;3510;43.200;27.920;2023-08-07T03:22:33;100166.63;;;23.30;62.45
6942;BME280;3510;43.200;27.920;2023-08-07T03:24:59;100173.47;;;23.31;62.17
6942;BME280;3510;43.200;27.920;2023-08-07T03:27:26;100164.41;;;23.47;61.68
6942;BME280;3510;43.200;27.920;2023-08-07T03:29:52;100180.41;;;23.34;61.99
6942;BME280;3510;43.200;27.920;2023-08-07T03:32:18;100187.41;;;23.42;61.30
6942;BME280;3510;43.200;27.920;2023-08-07T03:34:45;100175.34;;;23.38;61.36
6942;BME280;3510;43.200;27.920;2023-08-07T03:37:12;100182.28;;;23.42;61.07
6942;BME280;3510;43.200;27.920;2023-08-07T03:39:39;100197.00;;;23.50;60.26
6942;BME280;3510;43.200;27.920;2023-08-07T03:42:06;100197.44;;;23.68;59.94
6942;BME280;3510;43.200;27.920;2023-08-07T03:44:32;100210.28;;;23.68;59.55
6942;BME280;3510;43.200;27.920;2023-08-07T03:46:59;100193.16;;;23.69;59.86
6942;BME280;3510;43.200;27.920;2023-08-07T03:49:26;100203.16;;;23.58;60.03
6942;BME280;3510;43.200;27.920;2023-08-07T03:51:52;100203.22;;;23.61;59.62
6942;BME280;3510;43.200;27.920;2023-08-07T03:54:19;100197.69;;;23.42;60.43
6942;BME280;3510;43.200;27.920;2023-08-07T03:56:47;100192.38;;;23.73;59.55
6942;BME280;3510;43.200;27.920;2023-08-07T03:59:15;100217.19;;;23.71;59.02
6942;BME280;3510;43.200;27.920;2023-08-07T04:01:41;100194.94;;;23.71;59.03
6942;BME280;3510;43.200;27.920;2023-08-07T04:04:08;100188.53;;;23.95;58.48
6942;BME280;3510;43.200;27.920;2023-08-07T04:06:35;100195.84;;;23.73;58.49
6942;BME280;3510;43.200;27.920;2023-08-07T04:09:01;100195.47;;;23.99;57.85
6942;BME280;3510;43.200;27.920;2023-08-07T04:11:28;100193.66;;;23.93;57.78
6942;BME280;3510;43.200;27.920;2023-08-07T04:13:56;100207.13;;;23.81;57.77
6942;BME280;3510;43.200;27.920;2023-08-07T04:16:22;100221.66;;;23.79;58.07
6942;BME280;3510;43.200;27.920;2023-08-07T04:18:49;100204.50;;;23.80;57.68
6942;BME280;3510;43.200;27.920;2023-08-07T04:21:17;100205.81;;;24.02;56.97
6942;BME280;3510;43.200;27.920;2023-08-07T04:23:43;100213.56;;;23.62;57.85
6942;BME280;3510;43.200;27.920;2023-08-07T04:26:09;100204.34;;;23.71;57.89
6942;BME280;3510;43.200;27.920;2023-08-07T04:28:36;100224.25;;;23.81;57.36
6942;BME280;3510;43.200;27.920;2023-08-07T04:31:04;100208.31;;;23.97;56.75
6942;BME280;3510;43.200;27.920;2023-08-07T04:33:33;100197.06;;;23.92;56.63
6942;BME280;3510;43.200;27.920;2023-08-07T04:35:59;100224.78;;;24.07;55.93
6942;BME280;3510;43.200;27.920;2023-08-07T04:38:27;100221.94;;;24.37;55.22
6942;BME280;3510;43.200;27.920;2023-08-07T04:40:54;100213.50;;;24.00;54.86
6942;BME280;3510;43.200;27.920;2023-08-07T04:43:21;100211.75;;;24.42;54.29
6942;BME280;3510;43.200;27.920;2023-08-07T04:46:01;100215.81;;;24.32;53.96
6942;BME280;3510;43.200;27.920;2023-08-07T04:48:29;100224.00;;;24.11;54.27
6942;BME280;3510;43.200;27.920;2023-08-07T04:50:56;100219.66;;;24.08;53.77
6942;BME280;3510;43.200;27.920;2023-08-07T04:53:23;100219.88;;;24.19;53.66
6942;BME280;3510;43.200;27.920;2023-08-07T04:55:49;100210.66;;;24.30;52.70
6942;BME280;3510;43.200;27.920;2023-08-07T04:58:16;100222.44;;;24.19;52.15
6942;BME280;3510;43.200;27.920;2023-08-07T05:00:44;100235.25;;;24.16;52.08
6942;BME280;3510;43.200;27.920;2023-08-07T05:03:20;100231.31;;;24.35;51.91
6942;BME280;3510;43.200;27.920;2023-08-07T05:05:48;100251.09;;;24.37;51.60
6942;BME280;3510;43.200;27.920;2023-08-07T05:08:16;100230.03;;;24.57;51.30
6942;BME280;3510;43.200;27.920;2023-08-07T05:10:43;100220.59;;;24.56;51.31
6942;BME280;3510;43.200;27.920;2023-08-07T05:13:10;100243.44;;;24.39;51.30
6942;BME280;3510;43.200;27.920;2023-08-07T05:15:36;100261.38;;;24.37;50.78
6942;BME280;3510;43.200;27.920;2023-08-07T05:18:06;100239.28;;;24.47;50.82
6942;BME280;3510;43.200;27.920;2023-08-07T05:20:33;100245.97;;;24.37;50.24
6942;BME280;3510;43.200;27.920;2023-08-07T05:23:06;100276.06;;;24.40;50.25
6942;BME280;3510;43.200;27.920;2023-08-07T05:25:33;100276.69;;;24.30;50.12
6942;BME280;3510;43.200;27.920;2023-08-07T05:28:00;100248.63;;;24.41;49.93
6942;BME280;3510;43.200;27.920;2023-08-07T05:30:28;100266.69;;;24.44;49.72
6942;BME280;3510;43.200;27.920;2023-08-07T05:32:54;100263.38;;;24.51;49.74
6942;BME280;3510;43.200;27.920;2023-08-07T05:35:21;100271.22;;;24.57;49.77
6942;BME280;3510;43.200;27.920;2023-08-07T05:37:47;100262.06;;;24.73;49.63
6942;BME280;3510;43.200;27.920;2023-08-07T05:40:15;100275.97;;;24.84;48.42
6942;BME280;3510;43.200;27.920;2023-08-07T05:42:42;100275.91;;;24.78;48.69
6942;BME280;3510;43.200;27.920;2023-08-07T05:45:09;100282.63;;;24.71;48.94
6942;BME280;3510;43.200;27.920;2023-08-07T05:47:36;100264.75;;;24.79;49.21
6942;BME280;3510;43.200;27.920;2023-08-07T05:50:03;100273.72;;;24.54;48.71
6942;BME280;3510;43.200;27.920;2023-08-07T05:52:31;100271.56;;;24.77;48.86
6942;BME280;3510;43.200;27.920;2023-08-07T05:54:57;100284.50;;;24.80;48.21
6942;BME280;3510;43.200;27.920;2023-08-07T05:57:25;100284.31;;;24.69;48.08
6942;BME280;3510;43.200;27.920;2023-08-07T05:59:51;100279.94;;;24.65;48.86
6942;BME280;3510;43.200;27.920;2023-08-07T06:02:18;100284.41;;;24.75;48.35
6942;BME280;3510;43.200;27.920;2023-08-07T06:04:45;100289.56;;;24.75;48.12
6942;BME280;3510;43.200;27.920;2023-08-07T06:07:13;100290.00;;;25.00;47.50
6942;BME280;3510;43.200;27.920;2023-08-07T06:09:40;100282.38;;;25.06;47.36
6942;BME280;3510;43.200;27.920;2023-08-07T06:12:07;100285.00;;;25.09;47.83
6942;BME280;3510;43.200;27.920;2023-08-07T06:14:36;100297.88;;;25.61;47.06
6942;BME280;3510;43.200;27.920;2023-08-07T06:17:03;100296.03;;;25.52;47.56
6942;BME280;3510;43.200;27.920;2023-08-07T06:19:30;100297.53;;;25.38;47.29
6942;BME280;3510;43.200;27.920;2023-08-07T06:21:57;100286.47;;;25.46;47.21
6942;BME280;3510;43.200;27.920;2023-08-07T06:24:23;100285.78;;;25.55;46.08
6942;BME280;3510;43.200;27.920;2023-08-07T06:26:51;100270.25;;;25.53;46.05
6942;BME280;3510;43.200;27.920;2023-08-07T06:29:19;100276.97;;;25.44;46.05
6942;BME280;3510;43.200;27.920;2023-08-07T06:31:48;100300.34;;;25.53;45.70
6942;BME280;3510;43.200;27.920;2023-08-07T06:34:16;100289.09;;;25.48;45.68
6942;BME280;3510;43.200;27.920;2023-08-07T06:36:42;100279.88;;;25.64;45.03
6942;BME280;3510;43.200;27.920;2023-08-07T06:39:09;100289.38;;;25.66;45.65
6942;BME280;3510;43.200;27.920;2023-08-07T06:41:44;100288.03;;;25.94;45.18
6942;BME280;3510;43.200;27.920;2023-08-07T06:44:11;100294.56;;;26.36;43.88
6942;BME280;3510;43.200;27.920;2023-08-07T06:46:38;100299.63;;;26.25;43.27
6942;BME280;3510;43.200;27.920;2023-08-07T06:49:13;100330.28;;;26.02;43.41
6942;BME280;3510;43.200;27.920;2023-08-07T06:51:40;100317.66;;;26.22;43.53
6942;BME280;3510;43.200;27.920;2023-08-07T06:54:06;100283.06;;;26.08;43.50
6942;BME280;3510;43.200;27.920;2023-08-07T06:56:33;100295.88;;;26.02;43.56
6942;BME280;3510;43.200;27.920;2023-08-07T06:59:00;100282.19;;;26.06;43.44
6942;BME280;3510;43.200;27.920;2023-08-07T07:01:27;100291.44;;;25.89;42.90
6942;BME280;3510;43.200;27.920;2023-08-07T07:03:54;100268.22;;;25.92;42.11
6942;BME280;3510;43.200;27.920;2023-08-07T07:06:22;100317.47;;;26.10;42.23
6942;BME280;3510;43.200;27.920;2023-08-07T07:08:50;100320.78;;;25.98;41.94
6942;BME280;3510;43.200;27.920;2023-08-07T07:11:19;100316.75;;;26.20;41.29
6942;BME280;3510;43.200;27.920;2023-08-07T07:13:45;100312.41;;;26.16;41.71
6942;BME280;3510;43.200;27.920;2023-08-07T07:16:12;100317.31;;;26.63;40.71
6942;BME280;3510;43.200;27.920;2023-08-07T07:18:39;100326.88;;;26.76;40.60
6942;BME280;3510;43.200;27.920;2023-08-07T07:21:05;100324.16;;;26.60;40.40
6942;BME280;3510;43.200;27.920;2023-08-07T07:23:33;100329.59;;;26.86;40.62
6942;BME280;3510;43.200;27.920;2023-08-07T07:26:00;100338.22;;;26.91;40.64
6942;BME280;3510;43.200;27.920;2023-08-07T07:28:27;100333.34;;;27.15;40.09
6942;BME280;3510;43.200;27.920;2023-08-07T07:30:53;100345.22;;;27.02;39.88
6942;BME280;3510;43.200;27.920;2023-08-07T07:33:20;100338.47;;;27.14;39.95
6942;BME280;3510;43.200;27.920;2023-08-07T07:35:48;100347.78;;;26.98;39.75
6942;BME280;3510;43.200;27.920;2023-08-07T07:38:14;100331.44;;;27.02;39.58
6942;BME280;3510;43.200;27.920;2023-08-07T07:40:42;100327.84;;;26.86;39.62
6942;BME280;3510;43.200;27.920;2023-08-07T07:43:09;100344.56;;;27.20;38.96
6942;BME280;3510;43.200;27.920;2023-08-07T07:45:35;100336.63;;;27.00;39.05
6942;BME280;3510;43.200;27.920;2023-08-07T07:48:02;100333.31;;;27.12;38.67
6942;BME280;3510;43.200;27.920;2023-08-07T07:50:28;100327.22;;;27.07;38.87
6942;BME280;3510;43.200;27.920;2023-08-07T07:52:55;100328.28;;;27.31;38.59
6942;BME280;3510;43.200;27.920;2023-08-07T07:55:21;100354.25;;;27.47;37.99
6942;BME280;3510;43.200;27.920;2023-08-07T07:57:53;100350.06;;;27.60;37.99
6942;BME280;3510;43.200;27.920;2023-08-07T08:00:20;100355.88;;;27.32;38.20
6942;BME280;3510;43.200;27.920;2023-08-07T08:02:51;100333.47;;;27.31;37.47
6942;BME280;3510;43.200;27.920;2023-08-07T08:05:18;100364.78;;;27.73;37.15
6942;BME280;3510;43.200;27.920;2023-08-07T08:07:45;100353.56;;;27.68;37.21
6942;BME280;3510;43.200;27.920;2023-08-07T08:10:11;100353.72;;;27.85;35.76
6942;BME280;3510;43.200;27.920;2023-08-07T08:12:38;100362.31;;;27.84;35.67
6942;BME280;3510;43.200;27.920;2023-08-07T08:15:06;100362.47;;;28.10;35.70
6942;BME280;3510;43.200;27.920;2023-08-07T08:17:34;100364.13;;;27.99;35.34
6942;BME280;3510;43.200;27.920;2023-08-07T08:20:01;100359.09;;;28.28;35.23
6942;BME280;3510;43.200;27.920;2023-08-07T08:22:27;100373.59;;;27.95;35.00
6942;BME280;3510;43.200;27.920;2023-08-07T08:24:54;100361.44;;;27.81;35.05
6942;BME280;3510;43.200;27.920;2023-08-07T08:27:21;100347.75;;;28.02;34.92
6942;BME280;3510;43.200;27.920;2023-08-07T08:29:48;100364.13;;;27.97;34.61
6942;BME280;3510;43.200;27.920;2023-08-07T08:46:37;100372.25;;;28.71;34.45
6942;BME280;3510;43.200;27.920;2023-08-07T08:49:19;100352.44;;;28.93;33.19
6942;BME280;3510;43.200;27.920;2023-08-07T08:52:03;100366.28;;;29.00;33.92
6942;BME280;3510;43.200;27.920;2023-08-07T08:54:47;100381.84;;;29.10;34.00
6942;BME280;3510;43.200;27.920;2023-08-07T08:57:14;100382.75;;;29.11;35.15
6942;BME280;3510;43.200;27.920;2023-08-07T08:59:41;100385.34;;;29.08;34.02
6942;BME280;3510;43.200;27.920;2023-08-07T09:02:09;100381.84;;;28.98;33.84
6942;BME280;3510;43.200;27.920;2023-08-07T09:04:36;100381.84;;;29.03;33.66
6942;BME280;3510;43.200;27.920;2023-08-07T09:07:20;100387.06;;;29.07;33.91
6942;BME280;3510;43.200;27.920;2023-08-07T09:10:00;100409.53;;;29.33;33.48
6942;BME280;3510;43.200;27.920;2023-08-07T09:12:29;100382.72;;;29.22;33.14
6942;BME280;3510;43.200;27.920;2023-08-07T09:14:56;100399.16;;;29.17;33.47
6942;BME280;3510;43.200;27.920;2023-08-07T09:17:38;100385.38;;;29.71;32.74
6942;BME280;3510;43.200;27.920;2023-08-07T09:20:05;100373.25;;;29.76;32.65
6942;BME280;3510;43.200;27.920;2023-08-07T09:22:35;100390.53;;;29.23;33.31
6942;BME280;3510;43.200;27.920;2023-08-07T09:25:03;100390.56;;;29.37;33.49
6942;BME280;3510;43.200;27.920;2023-08-07T09:27:45;100385.34;;;29.48;33.62
6942;BME280;3510;43.200;27.920;2023-08-07T09:30:12;100387.91;;;29.14;34.70
6942;BME280;3510;43.200;27.920;2023-08-07T09:35:32;100387.09;;;29.49;33.94
6942;BME280;3510;43.200;27.920;2023-08-07T09:37:59;100376.69;;;29.55;34.49
6942;BME280;3510;43.200;27.920;2023-08-07T09:40:27;100381.91;;;29.82;33.45
6942;BME280;3510;43.200;27.920;2023-08-07T09:42:56;100386.25;;;29.65;33.70
6942;BME280;3510;43.200;27.920;2023-08-07T09:45:23;100378.44;;;29.76;32.84
6942;BME280;3510;43.200;27.920;2023-08-07T09:47:57;100387.06;;;29.87;32.74
6942;BME280;3510;43.200;27.920;2023-08-07T09:50:23;100385.34;;;29.55;33.06
6942;BME280;3510;43.200;27.920;2023-08-07T09:55:46;100368.94;;;29.65;33.03
6942;BME280;3510;43.200;27.920;2023-08-07T09:58:13;100379.31;;;29.72;33.27
6942;BME280;3510;43.200;27.920;2023-08-07T10:00:42;100381.91;;;29.58;33.17
6942;BME280;3510;43.200;27.920;2023-08-07T10:03:22;100380.09;;;30.13;32.88
6942;BME280;3510;43.200;27.920;2023-08-07T10:05:50;100401.75;;;29.96;32.02
6942;BME280;3510;43.200;27.920;2023-08-07T10:08:17;100387.94;;;29.83;32.45
6942;BME280;3510;43.200;27.920;2023-08-07T10:10:47;100406.13;;;29.89;32.38
6942;BME280;3510;43.200;27.920;2023-08-07T10:15:49;100385.94;;;30.77;32.41
6942;BME280;3510;43.200;27.920;2023-08-07T10:18:16;100390.47;;;30.30;32.33
6942;BME280;3510;43.200;27.920;2023-08-07T10:20:42;100390.50;;;30.20;32.13
6942;BME280;3510;43.200;27.920;2023-08-07T10:23:09;100387.88;;;30.13;31.95
6942;BME280;3510;43.200;27.920;2023-08-07T10:25:39;100403.44;;;30.30;31.82
6942;BME280;3510;43.200;27.920;2023-08-07T10:31:16;100389.34;;;30.93;30.87
6942;BME280;3510;43.200;27.920;2023-08-07T10:33:43;100398.19;;;30.47;31.83
6942;BME280;3510;43.200;27.920;2023-08-07T10:36:10;100381.84;;;30.19;31.15
6942;BME280;3510;43.200;27.920;2023-08-07T10:38:37;100393.94;;;30.20;31.45
6942;BME280;3510;43.200;27.920;2023-08-07T10:41:41;100390.38;;;30.47;30.49
6942;BME280;3510;43.200;27.920;2023-08-07T10:44:16;100396.34;;;30.77;30.35
6942;BME280;3510;43.200;27.920;2023-08-07T10:46:46;100386.88;;;30.54;31.03
6942;BME280;3510;43.200;27.920;2023-08-07T10:49:23;100385.03;;;30.85;30.80
6942;BME280;3510;43.200;27.920;2023-08-07T10:51:55;100392.00;;;30.70;31.52
6942;BME280;3510;43.200;27.920;2023-08-07T10:54:23;100398.88;;;30.91;30.41
6942;BME280;3510;43.200;27.920;2023-08-07T10:59:34;100396.47;;;30.46;30.30
6942;BME280;3510;43.200;27.920;2023-08-07T11:02:04;100388.44;;;30.95;29.76
6942;BME280;3510;43.200;27.920;2023-08-07T11:04:34;100398.81;;;31.01;29.81
6942;BME280;3510;43.200;27.920;2023-08-07T11:07:01;100407.53;;;30.91;29.53
6942;BME280;3510;43.200;27.920;2023-08-07T11:09:28;100359.19;;;30.56;29.38
6942;BME280;3510;43.200;27.920;2023-08-07T11:11:56;100383.22;;;30.95;29.50
6942;BME280;3510;43.200;27.920;2023-08-07T11:14:22;100391.16;;;30.78;30.04
6942;BME280;3510;43.200;27.920;2023-08-07T11:16:52;100405.53;;;31.33;29.33
6942;BME280;3510;43.200;27.920;2023-08-07T11:19:28;100404.00;;;31.04;29.78
6942;BME280;3510;43.200;27.920;2023-08-07T11:21:55;100369.25;;;31.10;29.18
6942;BME280;3510;43.200;27.920;2023-08-07T11:24:23;100371.53;;;31.56;29.34
6942;BME280;3510;43.200;27.920;2023-08-07T11:26:53;100365.34;;;31.66;28.65
6942;BME280;3510;43.200;27.920;2023-08-07T11:29:22;100288.91;;;30.70;28.88
6942;BME280;3510;43.200;27.920;2023-08-07T11:31:51;100381.13;;;31.51;28.36
6942;BME280;3510;43.200;27.920;2023-08-07T11:34:18;100389.75;;;31.56;28.48
6942;BME280;3510;43.200;27.920;2023-08-07T11:36:45;100393.19;;;31.58;28.54
6942;BME280;3510;43.200;27.920;2023-08-07T11:39:14;100385.25;;;31.75;27.76
6942;BME280;3510;43.200;27.920;2023-08-07T11:41:42;100356.78;;;31.56;28.53
6942;BME280;3510;43.200;27.920;2023-08-07T11:44:10;100358.28;;;31.82;28.13
6942;BME280;3510;43.200;27.920;2023-08-07T11:46:36;100344.34;;;31.85;27.07
6942;BME280;3510;43.200;27.920;2023-08-07T11:49:05;100393.72;;;31.98;27.61
6942;BME280;3510;43.200;27.920;2023-08-07T11:51:33;100379.22;;;31.68;27.24
6942;BME280;3510;43.200;27.920;2023-08-07T11:54:00;100381.78;;;31.74;27.10
6942;BME280;3510;43.200;27.920;2023-08-07T11:56:27;100346.31;;;31.64;26.57
6942;BME280;3510;43.200;27.920;2023-08-07T11:59:02;100352.25;;;31.74;26.63
6942;BME280;3510;43.200;27.920;2023-08-07T12:01:29;100376.34;;;32.70;26.86
6942;BME280;3510;43.200;27.920;2023-08-07T12:03:57;100376.72;;;33.07;25.83
6942;BME280;3510;43.200;27.920;2023-08-07T12:09:11;100327.03;;;33.15;24.74
6942;BME280;3510;43.200;27.920;2023-08-07T12:11:40;100367.66;;;33.31;25.11
6942;BME280;3510;43.200;27.920;2023-08-07T12:14:13;100382.72;;;33.68;24.76
6942;BME280;3510;43.200;27.920;2023-08-07T12:16:43;100380.97;;;34.15;24.65
6942;BME280;3510;43.200;27.920;2023-08-07T12:19:11;100342.78;;;35.26;23.21
6942;BME280;3510;43.200;27.920;2023-08-07T12:21:38;100380.22;;;34.53;24.27
6942;BME280;3510;43.200;27.920;2023-08-07T12:24:07;100366.66;;;34.34;23.47
6942;BME280;3510;43.200;27.920;2023-08-07T12:26:36;100365.69;;;34.37;23.58
6942;BME280;3510;43.200;27.920;2023-08-07T12:29:02;100377.44;;;34.59;22.71
6942;BME280;3510;43.200;27.920;2023-08-07T12:31:30;100327.31;;;33.99;22.64
6942;BME280;3510;43.200;27.920;2023-08-07T12:33:56;100242.41;;;33.76;23.12
6942;BME280;3510;43.200;27.920;2023-08-07T12:36:23;100317.69;;;34.42;22.49
6942;BME280;3510;43.200;27.920;2023-08-07T12:38:53;100368.09;;;34.88;22.25
6942;BME280;3510;43.200;27.920;2023-08-07T12:41:21;100276.72;;;34.03;21.94
6942;BME280;3510;43.200;27.920;2023-08-07T12:43:49;100377.34;;;34.22;22.42
6942;BME280;3510;43.200;27.920;2023-08-07T12:46:16;100378.00;;;33.36;23.04
6942;BME280;3510;43.200;27.920;2023-08-07T12:48:43;100378.34;;;33.14;23.82
6942;BME280;3510;43.200;27.920;2023-08-07T12:51:13;100381.59;;;32.67;25.17
6942;BME280;3510;43.200;27.920;2023-08-07T12:54:00;100367.81;;;32.59;25.07
6942;BME280;3510;43.200;27.920;2023-08-07T12:56:26;100340.16;;;32.50;24.96
6942;BME280;3510;43.200;27.920;2023-08-07T12:58:54;100375.78;;;33.13;25.57
6942;BME280;3510;43.200;27.920;2023-08-07T13:01:21;100386.97;;;32.58;25.42
6942;BME280;3510;43.200;27.920;2023-08-07T13:03:48;100381.75;;;32.58;24.68
6942;BME280;3510;43.200;27.920;2023-08-07T13:08:57;100385.47;;;33.03;24.89
6942;BME280;3510;43.200;27.920;2023-08-07T13:11:26;100367.16;;;32.43;24.16
6942;BME280;3510;43.200;27.920;2023-08-07T13:14:09;100349.81;;;32.40;23.89
6942;BME280;3510;43.200;27.920;2023-08-07T13:16:36;100348.03;;;32.45;24.03
6942;BME280;3510;43.200;27.920;2023-08-07T13:19:08;100384.31;;;32.61;24.44
6942;BME280;3510;43.200;27.920;2023-08-07T13:21:35;100325.59;;;32.34;24.38
6942;BME280;3510;43.200;27.920;2023-08-07T13:24:04;100370.91;;;32.85;24.04
6942;BME280;3510;43.200;27.920;2023-08-07T13:26:31;100322.31;;;32.15;24.05
6942;BME280;3510;43.200;27.920;2023-08-07T13:29:16;100397.22;;;32.70;24.76
6942;BME280;3510;43.200;27.920;2023-08-07T13:31:42;100387.31;;;32.98;24.46
6942;BME280;3510;43.200;27.920;2023-08-07T13:34:11;100387.25;;;32.99;25.29
6942;BME280;3510;43.200;27.920;2023-08-07T13:36:38;100384.41;;;33.16;24.48
6942;BME280;3510;43.200;27.920;2023-08-07T13:39:05;100321.47;;;32.81;24.17